Time;durP1;ratioP1;P1;durP2;ratioP2;P2;SDS_P1;SDS_P2;PMS_P1;PMS_P2;Temp;Humidity;BMP_temperature;BMP_pressure;BME280_temperature;BME280_humidity;BME280_pressure;Samples;Min_cycle;Max_cycle;Signal;HPM_P1;HPM_P2
2023/06/20 00:00:47;;;;;;;22.40;20.10;;;16.60;99.90;;;;;;5105481;28;20415;-90
2023/06/20 00:03:13;;;;;;;24.55;21.17;;;16.70;99.90;;;;;;5105595;28;20446;-89
2023/06/20 00:05:39;;;;;;;23.75;21.23;;;16.70;99.90;;;;;;5088438;28;20830;-89
2023/06/20 00:08:05;;;;;;;23.77;21.25;;;16.80;99.90;;;;;;5087744;28;20491;-90
2023/06/20 00:10:30;;;;;;;24.57;21.97;;;16.70;99.90;;;;;;5105645;28;20423;-89
2023/06/20 00:12:56;;;;;;;27.05;22.35;;;16.70;99.90;;;;;;5104845;28;20961;-89
2023/06/20 00:15:25;;;;;;;26.47;22.73;;;16.70;99.90;;;;;;5108516;28;20397;-87
2023/06/20 00:17:52;;;;;;;24.92;22.35;;;16.60;99.90;;;;;;5091807;28;20465;-89
2023/06/20 00:20:19;;;;;;;24.77;22.07;;;16.60;99.90;;;;;;5108991;28;20404;-89
2023/06/20 00:22:44;;;;;;;24.25;21.58;;;16.70;99.90;;;;;;5092237;28;20532;-89
2023/06/20 00:25:10;;;;;;;24.60;21.93;;;16.60;99.90;;;;;;5091255;28;20486;-89
2023/06/20 00:27:36;;;;;;;23.95;21.33;;;16.60;99.90;;;;;;5091953;28;20900;-90
2023/06/20 00:30:02;;;;;;;23.20;20.53;;;16.60;99.90;;;;;;5108414;28;20423;-87
2023/06/20 00:32:28;;;;;;;24.95;21.75;;;16.60;99.90;;;;;;5108943;28;20454;-88
2023/06/20 00:34:54;;;;;;;24.65;22.05;;;16.70;99.90;;;;;;5108970;28;20880;-89
2023/06/20 00:37:20;;;;;;;25.60;21.77;;;16.80;99.90;;;;;;5108333;28;20912;-89
2023/06/20 00:39:45;;;;;;;23.83;21.15;;;16.70;99.90;;;;;;5091186;28;20404;-89
2023/06/20 00:42:23;;;;;;;24.57;21.47;;;16.70;99.90;;;;;;5108228;28;20479;-89
2023/06/20 00:44:52;;;;;;;26.27;22.77;;;16.80;99.90;;;;;;5091702;28;20982;-89
2023/06/20 00:47:19;;;;;;;25.08;22.40;;;16.80;99.90;;;;;;5108391;28;20442;-88
2023/06/20 00:49:46;;;;;;;25.40;21.73;;;16.90;99.90;;;;;;5091338;28;20408;-90
2023/06/20 00:52:14;;;;;;;26.70;22.42;;;17.20;99.90;;;;;;5091456;28;20475;-89
2023/06/20 00:54:43;;;;;;;23.10;20.75;;;17.20;99.90;;;;;;5108465;28;20408;-90
2023/06/20 00:57:09;;;;;;;26.00;22.47;;;17.10;99.90;;;;;;5091878;28;20757;-88
2023/06/20 00:59:35;;;;;;;27.25;22.98;;;17.10;99.90;;;;;;5091070;28;20407;-90
2023/06/20 01:02:03;;;;;;;26.55;23.67;;;17.20;99.90;;;;;;5091657;28;20397;-89
2023/06/20 01:04:29;;;;;;;25.15;22.50;;;17.20;99.90;;;;;;5107334;28;20405;-89
2023/06/20 01:06:58;;;;;;;26.63;23.73;;;17.30;99.90;;;;;;5091790;28;20979;-90
2023/06/20 01:09:31;;;;;;;25.50;22.67;;;17.30;99.90;;;;;;5108265;28;20412;-89
2023/06/20 01:12:35;;;;;;;27.70;23.00;;;17.30;99.90;;;;;;5107728;28;20401;-89
2023/06/20 01:15:18;;;;;;;24.77;21.88;;;17.30;99.90;;;;;;5107961;28;20420;-88
2023/06/20 01:18:01;;;;;;;25.20;22.25;;;17.40;99.90;;;;;;5107784;28;20416;-88
2023/06/20 01:20:33;;;;;;;26.17;23.20;;;17.30;99.90;;;;;;5108358;28;20408;-89
2023/06/20 01:23:23;;;;;;;25.73;21.83;;;17.40;99.90;;;;;;5090708;28;20416;-89
2023/06/20 01:26:15;;;;;;;22.77;20.38;;;17.30;99.90;;;;;;5107178;28;20428;-88
2023/06/20 01:28:50;;;;;;;25.85;21.83;;;17.40;99.90;;;;;;5076245;28;20408;-88
2023/06/20 01:31:19;;;;;;;25.50;22.27;;;17.40;99.90;;;;;;5107112;28;20425;-88
2023/06/20 01:33:49;;;;;;;25.27;22.65;;;17.40;99.90;;;;;;5107307;28;21060;-89
2023/06/20 01:36:18;;;;;;;25.77;21.75;;;17.50;99.90;;;;;;5090453;28;20428;-88
2023/06/20 01:38:44;;;;;;;25.45;22.75;;;17.50;99.90;;;;;;5106793;28;20443;-87
2023/06/20 01:41:12;;;;;;;23.98;21.42;;;17.50;99.90;;;;;;5090361;28;20416;-88
2023/06/20 01:43:38;;;;;;;24.95;22.30;;;17.60;99.90;;;;;;5106915;28;20397;-88
2023/06/20 01:46:07;;;;;;;24.55;21.83;;;17.50;99.90;;;;;;5090130;28;20420;-88
2023/06/20 01:48:35;;;;;;;23.48;21.02;;;17.50;99.90;;;;;;5089854;28;20406;-87
2023/06/20 01:51:01;;;;;;;24.73;22.10;;;17.60;99.90;;;;;;5106446;28;20395;-88
2023/06/20 01:53:27;;;;;;;25.42;22.63;;;17.60;99.90;;;;;;5106890;28;20396;-88
2023/06/20 01:55:55;;;;;;;24.25;21.20;;;17.60;99.90;;;;;;5106628;28;20392;-88
2023/06/20 01:58:22;;;;;;;23.50;21.10;;;17.60;99.90;;;;;;5106973;28;20396;-89
2023/06/20 02:00:48;;;;;;;22.52;20.10;;;17.50;99.90;;;;;;5089557;28;20432;-89
2023/06/20 02:03:16;;;;;;;20.60;18.48;;;17.70;99.90;;;;;;5089685;28;20471;-89
2023/06/20 02:05:42;;;;;;;20.17;18.08;;;17.70;99.90;;;;;;5106473;28;20420;-89
2023/06/20 02:08:11;;;;;;;21.00;18.75;;;17.70;99.90;;;;;;5106210;28;20479;-89
2023/06/20 02:10:37;;;;;;;20.30;18.10;;;17.80;99.90;;;;;;5089991;28;20909;-89
2023/06/20 02:13:03;;;;;;;19.50;17.50;;;17.60;99.90;;;;;;5106458;28;20445;-89
2023/06/20 02:15:30;;;;;;;19.27;17.27;;;17.90;99.90;;;;;;5106888;28;20454;-88
2023/06/20 02:17:56;;;;;;;19.52;17.20;;;17.90;99.90;;;;;;5090435;28;20420;-88
2023/06/20 02:20:22;;;;;;;19.55;17.35;;;17.70;99.90;;;;;;5088381;28;20413;-87
2023/06/20 02:22:50;;;;;;;18.20;16.40;;;17.70;99.90;;;;;;5106158;28;20445;-89
2023/06/20 02:25:31;;;;;;;18.80;16.80;;;17.90;99.90;;;;;;5089202;28;20525;-89
2023/06/20 02:27:57;;;;;;;18.83;16.80;;;17.60;99.90;;;;;;5089118;28;20445;-89
2023/06/20 02:30:27;;;;;;;18.70;16.75;;;17.80;99.90;;;;;;5088708;28;20416;-89
2023/06/20 02:32:55;;;;;;;19.13;16.33;;;17.60;99.90;;;;;;5106448;28;20947;-88
2023/06/20 02:35:22;;;;;;;18.73;16.27;;;17.70;99.90;;;;;;5088857;28;20458;-88
2023/06/20 02:37:49;;;;;;;18.07;16.23;;;17.70;99.90;;;;;;5105013;28;20400;-88
2023/06/20 02:40:14;;;;;;;17.73;15.77;;;17.70;99.90;;;;;;5088650;28;20408;-88
2023/06/20 02:42:40;;;;;;;19.77;15.10;;;17.80;99.90;;;;;;5105492;28;20900;-90
2023/06/20 02:45:06;;;;;;;17.20;15.27;;;17.70;99.90;;;;;;5106242;28;20518;-89
2023/06/20 02:48:04;;;;;;;17.13;14.90;;;17.70;99.90;;;;;;5088220;28;20408;-89
2023/06/20 02:50:41;;;;;;;16.63;14.73;;;17.70;99.90;;;;;;5067735;28;21005;-89
2023/06/20 02:53:21;;;;;;;16.57;14.70;;;17.70;99.90;;;;;;5105485;28;20408;-88
2023/06/20 02:55:55;;;;;;;15.73;13.93;;;17.70;99.90;;;;;;5088312;28;20469;-89
2023/06/20 02:58:24;;;;;;;16.45;13.93;;;17.70;99.90;;;;;;5105764;28;20777;-89
2023/06/20 03:00:52;;;;;;;15.88;13.15;;;17.70;99.90;;;;;;5105238;28;20904;-88
2023/06/20 03:03:25;;;;;;;15.15;13.55;;;17.70;99.90;;;;;;5089148;28;20958;-89
2023/06/20 03:05:56;;;;;;;14.30;13.00;;;17.70;99.90;;;;;;5088602;28;20431;-87
2023/06/20 03:08:27;;;;;;;13.80;12.40;;;17.80;99.90;;;;;;5105225;28;20471;-89
2023/06/20 03:10:57;;;;;;;14.32;12.82;;;17.70;99.90;;;;;;5105275;28;20400;-89
2023/06/20 03:13:24;;;;;;;14.98;12.48;;;17.70;99.90;;;;;;5104936;28;20403;-89
2023/06/20 03:15:49;;;;;;;14.05;12.40;;;17.70;99.90;;;;;;5088342;28;20404;-88
2023/06/20 03:18:17;;;;;;;13.87;11.83;;;17.70;99.90;;;;;;5104661;28;20411;-89
2023/06/20 03:20:44;;;;;;;12.80;11.43;;;17.80;99.90;;;;;;5105342;28;21009;-88
2023/06/20 03:23:09;;;;;;;12.35;11.15;;;17.70;99.90;;;;;;5105139;28;20440;-88
2023/06/20 03:25:35;;;;;;;12.47;11.13;;;17.80;99.90;;;;;;5087720;28;20844;-89
2023/06/20 03:28:01;;;;;;;13.63;11.35;;;17.80;99.90;;;;;;5104454;28;20471;-88
2023/06/20 03:30:26;;;;;;;12.37;11.17;;;17.80;99.90;;;;;;5104391;28;20451;-89
2023/06/20 03:32:52;;;;;;;12.80;11.50;;;17.80;99.90;;;;;;5087966;28;20404;-88
2023/06/20 03:35:18;;;;;;;12.50;10.90;;;17.80;99.90;;;;;;5104805;28;20408;-88
2023/06/20 03:37:43;;;;;;;11.55;10.40;;;17.80;99.90;;;;;;5088160;28;20392;-89
2023/06/20 03:40:09;;;;;;;13.47;10.33;;;17.90;99.90;;;;;;5104866;28;20928;-89
2023/06/20 03:42:35;;;;;;;13.25;11.13;;;17.80;99.90;;;;;;5088653;28;20793;-87
2023/06/20 03:45:01;;;;;;;11.73;10.40;;;17.90;99.90;;;;;;5105113;28;20424;-88
2023/06/20 03:47:27;;;;;;;11.20;10.10;;;18.00;99.90;;;;;;5104968;28;20932;-88
2023/06/20 03:49:52;;;;;;;12.43;10.77;;;17.80;99.90;;;;;;5109653;28;20838;-88
2023/06/20 03:52:18;;;;;;;11.47;10.20;;;17.90;99.90;;;;;;5092063;28;20396;-86
2023/06/20 03:54:43;;;;;;;11.20;10.07;;;17.90;99.90;;;;;;5092051;28;20411;-88
2023/06/20 03:57:09;;;;;;;11.70;10.50;;;18.10;99.90;;;;;;5091721;28;20411;-87
2023/06/20 03:59:35;;;;;;;11.77;10.48;;;18.20;99.90;;;;;;5091980;28;20407;-87
2023/06/20 04:02:00;;;;;;;11.87;10.63;;;18.00;99.90;;;;;;5109254;28;20491;-88
2023/06/20 04:04:26;;;;;;;12.55;11.25;;;18.00;99.90;;;;;;5108949;28;20457;-90
2023/06/20 04:06:52;;;;;;;13.20;11.10;;;18.00;99.90;;;;;;5108880;28;20856;-89
2023/06/20 04:09:18;;;;;;;12.95;11.65;;;18.00;99.90;;;;;;5091704;28;20455;-88
2023/06/20 04:11:45;;;;;;;12.95;11.63;;;18.00;99.90;;;;;;5109043;28;20945;-89
2023/06/20 04:14:10;;;;;;;13.90;12.07;;;18.10;99.90;;;;;;5091311;28;20411;-89
2023/06/20 04:16:36;;;;;;;13.87;12.47;;;18.00;99.90;;;;;;5091644;28;20412;-88
2023/06/20 04:19:02;;;;;;;13.65;12.35;;;18.40;99.90;;;;;;5091240;28;20393;-88
2023/06/20 04:21:31;;;;;;;13.32;11.63;;;18.30;99.90;;;;;;5108463;28;20461;-89
2023/06/20 04:23:57;;;;;;;12.77;11.48;;;18.10;99.90;;;;;;5107915;28;20945;-89
2023/06/20 04:26:22;;;;;;;13.50;12.00;;;18.50;99.90;;;;;;5107800;28;20428;-92
2023/06/20 04:28:48;;;;;;;13.70;12.07;;;18.20;99.90;;;;;;5108195;28;20396;-87
2023/06/20 04:31:14;;;;;;;13.75;12.32;;;18.30;99.90;;;;;;5126572;27;20399;-87
2023/06/20 04:33:45;;;;;;;14.50;12.07;;;18.40;99.90;;;;;;5111446;27;20838;-86
2023/06/20 04:36:13;;;;;;;13.52;12.18;;;18.50;99.90;;;;;;5129642;27;20394;-88
2023/06/20 04:38:45;;;;;;;13.48;12.23;;;18.40;99.90;;;;;;5111486;27;20413;-90
2023/06/20 04:41:11;;;;;;;13.07;11.75;;;18.70;99.90;;;;;;5111133;27;20907;-87
2023/06/20 04:43:37;;;;;;;13.15;11.32;;;18.80;99.90;;;;;;5110649;27;20413;-88
2023/06/20 04:46:04;;;;;;;13.35;11.70;;;18.60;99.90;;;;;;5110718;27;20426;-88
2023/06/20 04:48:31;;;;;;;13.02;11.73;;;18.80;99.90;;;;;;5111132;27;20410;-90
2023/06/20 04:50:56;;;;;;;12.67;11.27;;;18.90;99.90;;;;;;5093046;27;20759;-88
2023/06/20 04:53:23;;;;;;;12.65;11.35;;;18.80;99.90;;;;;;5127672;27;20402;-86
2023/06/20 04:55:49;;;;;;;12.10;10.90;;;18.70;99.90;;;;;;5111728;27;20478;-89
2023/06/20 04:58:15;;;;;;;14.15;11.35;;;18.70;99.90;;;;;;5110886;27;20441;-89
2023/06/20 05:00:41;;;;;;;13.33;11.20;;;18.60;99.90;;;;;;5109575;27;20991;-88
2023/06/20 05:03:07;;;;;;;13.27;11.87;;;18.80;99.90;;;;;;5093771;27;20402;-88
2023/06/20 05:05:32;;;;;;;12.80;11.50;;;18.80;99.90;;;;;;5128731;27;20419;-91
2023/06/20 05:07:58;;;;;;;12.23;10.50;;;18.90;99.90;;;;;;5092936;27;20944;-87
2023/06/20 05:10:24;;;;;;;12.18;10.77;;;18.90;99.90;;;;;;5110503;27;20426;-88
2023/06/20 05:12:50;;;;;;;12.43;11.20;;;18.90;99.90;;;;;;5109955;27;20953;-88
2023/06/20 05:15:23;;;;;;;12.20;10.90;;;18.90;99.90;;;;;;5104791;27;20397;-91
2023/06/20 05:17:49;;;;;;;12.23;10.88;;;19.00;99.90;;;;;;5109652;27;20969;-90
2023/06/20 05:20:15;;;;;;;12.40;11.02;;;19.10;99.90;;;;;;5108981;27;20414;-91
2023/06/20 05:22:40;;;;;;;12.40;10.88;;;19.20;99.90;;;;;;5109059;27;20398;-88
2023/06/20 05:25:06;;;;;;;15.13;11.60;;;19.30;99.90;;;;;;5119198;27;20786;-87
2023/06/20 05:27:32;;;;;;;11.95;10.85;;;19.30;99.90;;;;;;5127956;27;20422;-88
2023/06/20 05:29:58;;;;;;;12.32;10.65;;;19.30;99.90;;;;;;5127073;27;20434;-88
2023/06/20 05:32:23;;;;;;;12.90;10.87;;;19.40;99.90;;;;;;5126813;27;20767;-87
2023/06/20 05:34:49;;;;;;;11.50;10.37;;;19.30;99.90;;;;;;5127172;27;20399;-88
2023/06/20 05:37:16;;;;;;;12.48;11.18;;;19.30;99.90;;;;;;5127864;27;20480;-90
2023/06/20 05:39:41;;;;;;;12.80;10.47;;;19.50;99.90;;;;;;5127538;27;20407;-90
2023/06/20 05:42:07;;;;;;;12.10;10.85;;;19.70;99.90;;;;;;5127937;27;20611;-86
2023/06/20 05:44:33;;;;;;;13.02;11.73;;;19.40;99.90;;;;;;5109775;27;21007;-88
2023/06/20 05:46:58;;;;;;;13.33;10.47;;;19.50;99.90;;;;;;5127138;27;20937;-88
2023/06/20 05:49:24;;;;;;;11.60;10.48;;;19.40;99.90;;;;;;5127627;27;20406;-88
2023/06/20 05:51:49;;;;;;;12.10;10.90;;;19.60;99.90;;;;;;5126881;27;20438;-88
2023/06/20 05:54:15;;;;;;;12.40;11.17;;;19.60;99.90;;;;;;5127355;27;20898;-87
2023/06/20 05:56:41;;;;;;;12.10;10.82;;;19.50;99.90;;;;;;5121554;27;20403;-87
2023/06/20 05:59:06;;;;;;;11.80;10.53;;;19.60;99.90;;;;;;5108818;27;20471;-88
2023/06/20 06:01:32;;;;;;;12.20;11.00;;;19.70;99.90;;;;;;5091273;27;20394;-87
2023/06/20 06:03:58;;;;;;;12.77;10.70;;;19.80;99.90;;;;;;5108589;27;20434;-88
2023/06/20 06:06:26;;;;;;;12.23;10.88;;;19.90;99.90;;;;;;5108921;27;20418;-89
2023/06/20 06:08:52;;;;;;;11.88;10.68;;;20.00;99.90;;;;;;5091202;27;20395;-89
2023/06/20 06:11:17;;;;;;;12.53;10.40;;;20.10;99.90;;;;;;5090066;28;20999;-87
2023/06/20 06:13:43;;;;;;;12.05;10.82;;;20.20;99.90;;;;;;5092558;27;20406;-86
2023/06/20 06:16:09;;;;;;;12.10;10.93;;;20.30;99.90;;;;;;5108748;27;20588;-87
2023/06/20 06:18:34;;;;;;;12.20;11.00;;;20.30;99.90;;;;;;5092404;27;20606;-90
2023/06/20 06:21:00;;;;;;;12.18;10.88;;;20.40;99.90;;;;;;5092637;27;20816;-87
2023/06/20 06:23:27;;;;;;;11.80;10.63;;;20.70;99.90;;;;;;5108971;27;20403;-90
2023/06/20 06:25:52;;;;;;;11.23;10.15;;;20.80;99.90;;;;;;5109467;27;20430;-87
2023/06/20 06:28:18;;;;;;;13.50;10.90;;;21.10;99.90;;;;;;5109006;27;20737;-87
2023/06/20 06:30:44;;;;;;;11.70;10.50;;;21.40;99.90;;;;;;5092317;27;20518;-89
2023/06/20 06:33:11;;;;;;;11.80;10.60;;;21.50;99.90;;;;;;5108819;27;20838;-86
2023/06/20 06:35:37;;;;;;;11.35;10.25;;;21.70;99.90;;;;;;5109304;27;20485;-90
2023/06/20 06:38:04;;;;;;;11.27;10.18;;;21.70;99.90;;;;;;5109383;27;20403;-88
2023/06/20 06:40:31;;;;;;;10.90;9.80;;;21.80;99.90;;;;;;5108708;27;20743;-88
2023/06/20 06:42:56;;;;;;;11.43;10.23;;;21.80;99.90;;;;;;5092074;27;20403;-89
2023/06/20 06:45:22;;;;;;;11.57;10.43;;;22.20;99.90;;;;;;5108431;27;20428;-88
2023/06/20 06:47:48;;;;;;;11.23;10.13;;;22.10;99.90;;;;;;5109214;27;20771;-90
2023/06/20 06:50:15;;;;;;;11.15;10.10;;;22.10;99.90;;;;;;5108824;27;20403;-91
2023/06/20 06:52:41;;;;;;;11.70;10.50;;;22.20;99.90;;;;;;5109039;27;20558;-90
2023/06/20 06:55:07;;;;;;;12.65;10.75;;;22.20;99.90;;;;;;5109006;27;20524;-87
2023/06/20 06:57:33;;;;;;;10.90;9.90;;;22.20;99.90;;;;;;5108341;27;20399;-88
2023/06/20 06:59:59;;;;;;;12.20;10.73;;;22.20;99.90;;;;;;5108649;27;20449;-89
2023/06/20 07:02:26;;;;;;;11.57;10.43;;;22.30;99.90;;;;;;5092045;27;20474;-87
2023/06/20 07:04:53;;;;;;;12.60;11.30;;;22.20;99.90;;;;;;5091606;27;21024;-89
2023/06/20 07:07:18;;;;;;;12.70;11.32;;;22.20;99.90;;;;;;5108099;27;20443;-87
2023/06/20 07:09:44;;;;;;;12.30;11.10;;;22.20;99.90;;;;;;5108309;27;20403;-87
2023/06/20 07:12:10;;;;;;;12.13;11.05;;;22.60;99.90;;;;;;5107919;27;20515;-88
2023/06/20 07:14:35;;;;;;;11.70;10.53;;;22.40;99.90;;;;;;5090960;27;20401;-87
2023/06/20 07:17:01;;;;;;;12.88;11.68;;;22.50;99.90;;;;;;5108447;27;20886;-92
2023/06/20 07:19:27;;;;;;;13.07;11.70;;;22.70;99.90;;;;;;5108046;27;20406;-89
2023/06/20 07:21:52;;;;;;;13.43;12.23;;;23.00;99.90;;;;;;5091871;27;20905;-85
2023/06/20 07:24:18;;;;;;;13.85;12.55;;;22.80;99.90;;;;;;5107998;28;20418;-86
2023/06/20 07:26:44;;;;;;;13.73;12.32;;;22.90;99.90;;;;;;5108262;28;20898;-87
2023/06/20 07:29:09;;;;;;;14.23;12.83;;;22.70;99.90;;;;;;5108546;28;20406;-88
2023/06/20 07:31:35;;;;;;;14.00;12.60;;;22.70;99.90;;;;;;5109205;28;20395;-89
2023/06/20 07:34:01;;;;;;;14.23;12.77;;;22.70;99.90;;;;;;5108561;28;20398;-89
2023/06/20 07:36:26;;;;;;;14.00;12.70;;;22.70;99.90;;;;;;5102883;28;20524;-88
2023/06/20 07:38:52;;;;;;;15.13;13.63;;;22.80;99.90;;;;;;5080354;28;20475;-89
2023/06/20 07:41:17;;;;;;;14.25;12.90;;;22.70;99.90;;;;;;5091049;28;20399;-87
2023/06/20 07:43:43;;;;;;;14.90;13.40;;;22.70;99.90;;;;;;5107349;28;20398;-88
2023/06/20 07:46:09;;;;;;;14.05;12.65;;;22.60;99.90;;;;;;5106957;28;20422;-88
2023/06/20 07:48:34;;;;;;;15.35;13.85;;;22.60;99.90;;;;;;5107900;28;20891;-90
2023/06/20 07:51:00;;;;;;;14.50;13.20;;;22.50;99.90;;;;;;5106900;28;20808;-88
2023/06/20 07:53:26;;;;;;;15.93;14.03;;;22.50;99.90;;;;;;5091088;28;20398;-92
2023/06/20 07:55:54;;;;;;;15.40;13.90;;;22.50;99.90;;;;;;5091764;28;20398;-87
2023/06/20 07:58:20;;;;;;;15.80;14.30;;;22.50;99.90;;;;;;5107673;28;20831;-88
2023/06/20 08:00:45;;;;;;;15.00;13.60;;;22.60;99.90;;;;;;5107987;28;20823;-87
2023/06/20 08:03:11;;;;;;;16.03;14.33;;;22.60;99.90;;;;;;5090450;28;20455;-88
2023/06/20 08:05:36;;;;;;;15.20;13.70;;;22.50;99.90;;;;;;5108026;28;20471;-87
2023/06/20 08:08:02;;;;;;;15.60;14.20;;;22.70;99.90;;;;;;5090531;28;20394;-88
2023/06/20 08:10:28;;;;;;;15.97;14.57;;;22.90;99.90;;;;;;5107531;28;20394;-87
2023/06/20 08:12:53;;;;;;;16.35;14.85;;;22.90;99.90;;;;;;5090654;28;20887;-88
2023/06/20 08:15:19;;;;;;;16.90;15.20;;;23.10;99.90;;;;;;5107477;28;20509;-89
2023/06/20 08:17:44;;;;;;;60.57;17.10;;;23.10;99.90;;;;;;5108049;28;20399;-84
2023/06/20 08:20:10;;;;;;;16.23;14.65;;;23.20;99.90;;;;;;5108184;28;20806;-88
2023/06/20 08:22:36;;;;;;;15.80;14.23;;;23.30;99.90;;;;;;5091225;28;20450;-90
2023/06/20 08:25:03;;;;;;;14.88;13.57;;;23.30;99.90;;;;;;5107701;28;20394;-88
2023/06/20 08:27:28;;;;;;;14.52;13.18;;;23.70;99.90;;;;;;5091957;28;20390;-89
2023/06/20 08:29:54;;;;;;;15.50;14.10;;;23.80;99.90;;;;;;5107962;28;20425;-91
2023/06/20 08:32:21;;;;;;;16.03;14.60;;;24.00;99.90;;;;;;5108248;28;21187;-90
2023/06/20 08:34:49;;;;;;;15.18;13.88;;;24.10;99.90;;;;;;5110065;27;20402;-91
2023/06/20 08:37:18;;;;;;;14.35;12.98;;;24.70;99.90;;;;;;5111478;27;20401;-91
2023/06/20 08:39:44;;;;;;;14.50;13.23;;;24.80;99.90;;;;;;5112824;27;20448;-91
2023/06/20 08:42:12;;;;;;;14.27;12.80;;;24.90;99.90;;;;;;5094579;27;20463;-90
2023/06/20 08:44:38;;;;;;;14.00;12.73;;;25.00;99.90;;;;;;5112045;27;20418;-88
2023/06/20 08:47:04;;;;;;;13.65;12.35;;;24.80;99.90;;;;;;5111574;27;20426;-89
2023/06/20 08:49:30;;;;;;;13.23;12.10;;;24.70;99.90;;;;;;5093758;27;20407;-89
2023/06/20 08:51:58;;;;;;;13.47;12.27;;;24.90;99.90;;;;;;5111157;27;20410;-89
2023/06/20 08:54:27;;;;;;;14.10;12.80;;;24.80;99.90;;;;;;5110706;27;20485;-89
2023/06/20 08:56:53;;;;;;;16.40;11.80;;;24.80;99.90;;;;;;5111172;27;20407;-87
2023/06/20 08:59:21;;;;;;;13.43;12.13;;;24.90;99.90;;;;;;5111477;27;20399;-93
2023/06/20 09:01:47;;;;;;;15.18;12.32;;;24.90;99.90;;;;;;5088861;27;20402;-88
2023/06/20 09:04:13;;;;;;;18.70;16.23;;;25.10;99.90;;;;;;5087563;28;20396;-88
2023/06/20 09:06:38;;;;;;;14.57;13.13;;;24.80;99.90;;;;;;5071397;28;21173;-91
2023/06/20 09:09:16;;;;;;;23.27;21.38;;;25.00;99.90;;;;;;5088278;28;20796;-91
2023/06/20 09:11:52;;;;;;;16.10;14.60;;;25.20;99.90;;;;;;5087650;28;20411;-89
2023/06/20 09:14:18;;;;;;;12.77;11.67;;;25.30;99.90;;;;;;5072005;28;20908;-89
2023/06/20 09:16:47;;;;;;;11.95;10.82;;;25.40;99.90;;;;;;5089560;28;20420;-90
2023/06/20 09:19:13;;;;;;;11.80;10.80;;;25.20;99.90;;;;;;5071464;28;20407;-91
2023/06/20 09:21:41;;;;;;;11.38;10.38;;;25.20;99.90;;;;;;5089868;28;20503;-87
2023/06/20 09:24:07;;;;;;;12.00;10.45;;;25.30;99.90;;;;;;5089343;28;20407;-90
2023/06/20 09:26:34;;;;;;;11.18;10.25;;;25.40;99.90;;;;;;5088731;28;20770;-91
2023/06/20 09:29:07;;;;;;;12.90;10.52;;;25.60;99.90;;;;;;5071361;28;20410;-86
2023/06/20 09:31:40;;;;;;;11.07;10.10;;;25.80;99.90;;;;;;5087817;28;20772;-87
2023/06/20 09:34:08;;;;;;;11.00;10.00;;;25.80;99.90;;;;;;5089032;28;20412;-87
2023/06/20 09:36:34;;;;;;;10.80;9.80;;;25.90;99.90;;;;;;5071968;28;20408;-90
2023/06/20 09:39:01;;;;;;;10.20;9.40;;;25.90;99.90;;;;;;5100989;27;20806;-87
2023/06/20 09:41:26;;;;;;;11.80;8.48;;;26.20;99.90;;;;;;5091709;27;20513;-90
2023/06/20 09:43:52;;;;;;;9.90;9.02;;;26.60;99.90;;;;;;5110517;27;20398;-91
2023/06/20 09:46:17;;;;;;;11.35;9.52;;;26.90;99.50;;;;;;5110090;27;20951;-89
2023/06/20 09:48:44;;;;;;;11.20;10.17;;;27.10;99.80;;;;;;5110924;27;20917;-88
2023/06/20 09:51:10;;;;;;;10.48;9.57;;;27.20;99.60;;;;;;5093100;27;20482;-91
2023/06/20 09:53:57;;;;;;;14.57;13.38;;;27.40;99.20;;;;;;5110538;27;20922;-91
2023/06/20 09:56:28;;;;;;;11.45;10.30;;;27.50;97.70;;;;;;5093669;27;20433;-87
2023/06/20 09:58:58;;;;;;;13.98;12.88;;;27.60;97.10;;;;;;5109645;27;20394;-89
2023/06/20 10:01:26;;;;;;;13.55;12.35;;;27.50;95.00;;;;;;5110432;27;20398;-90
2023/06/20 10:03:54;;;;;;;11.00;10.10;;;27.40;96.70;;;;;;5092916;27;20434;-89
2023/06/20 10:06:20;;;;;;;11.60;10.70;;;27.50;97.60;;;;;;5109460;27;20426;-89
2023/06/20 10:08:47;;;;;;;11.35;10.43;;;27.50;96.60;;;;;;5110340;27;20439;-91
2023/06/20 10:11:13;;;;;;;10.48;9.57;;;27.50;95.60;;;;;;5091998;27;20487;-89
2023/06/20 10:13:40;;;;;;;10.90;10.00;;;27.40;96.40;;;;;;5109491;27;20406;-90
2023/06/20 10:16:07;;;;;;;10.40;9.40;;;27.50;97.40;;;;;;5108607;27;20443;-90
2023/06/20 10:18:32;;;;;;;10.77;9.88;;;27.80;97.00;;;;;;5092324;27;20410;-89
2023/06/20 10:21:01;;;;;;;11.05;9.13;;;28.20;96.50;;;;;;5109155;27;20407;-89
2023/06/20 10:23:31;;;;;;;10.13;9.33;;;28.70;95.00;;;;;;5109980;27;20403;-91
2023/06/20 10:26:02;;;;;;;10.05;9.15;;;29.10;91.10;;;;;;5092318;27;20433;-90
2023/06/20 10:28:28;;;;;;;8.70;7.90;;;29.40;88.90;;;;;;5109223;27;20746;-86
2023/06/20 10:30:56;;;;;;;8.18;7.47;;;29.30;92.00;;;;;;5109078;27;20399;-90
2023/06/20 10:33:29;;;;;;;7.77;7.17;;;29.40;88.10;;;;;;5108412;27;20410;-87
2023/06/20 10:36:03;;;;;;;7.60;6.90;;;29.50;88.30;;;;;;5109010;27;20447;-89
2023/06/20 10:38:30;;;;;;;7.30;6.68;;;29.70;85.20;;;;;;5108853;27;20459;-90
2023/06/20 10:41:33;;;;;;;6.00;5.50;;;29.90;82.30;;;;;;5108948;27;20401;-87
2023/06/20 10:44:00;;;;;;;5.85;5.32;;;30.20;74.80;;;;;;5103517;27;20906;-89
2023/06/20 10:46:41;;;;;;;5.50;5.10;;;30.50;69.30;;;;;;5108296;27;20426;-91
2023/06/20 10:49:09;;;;;;;5.32;4.90;;;30.60;68.00;;;;;;5091671;27;20429;-90
2023/06/20 10:51:44;;;;;;;5.55;5.10;;;30.90;68.10;;;;;;5108983;27;20407;-89
2023/06/20 10:54:11;;;;;;;5.40;4.90;;;31.10;60.00;;;;;;5091814;27;20770;-89
2023/06/20 10:56:36;;;;;;;5.20;4.72;;;31.20;57.10;;;;;;5108444;27;20430;-90
2023/06/20 10:59:12;;;;;;;5.30;4.90;;;31.30;63.10;;;;;;5108033;27;21053;-92
2023/06/20 11:01:38;;;;;;;6.32;5.00;;;31.40;56.00;;;;;;5108621;27;20443;-90
2023/06/20 11:04:08;;;;;;;5.50;5.10;;;31.60;57.10;;;;;;5091865;27;20804;-90
2023/06/20 11:06:33;;;;;;;6.40;5.87;;;31.70;58.10;;;;;;5108548;27;20429;-84
2023/06/20 11:08:59;;;;;;;6.47;5.88;;;32.00;58.90;;;;;;5107965;27;20407;-90
2023/06/20 11:11:39;;;;;;;6.25;5.68;;;32.20;56.20;;;;;;5105775;27;20391;-89
2023/06/20 11:14:12;;;;;;;6.63;6.03;;;32.30;55.10;;;;;;5091531;27;20413;-91
2023/06/20 11:16:38;;;;;;;6.53;5.85;;;32.50;53.80;;;;;;5107418;27;20414;-88
2023/06/20 11:19:04;;;;;;;6.35;5.85;;;32.60;53.30;;;;;;5107874;27;20394;-88
2023/06/20 11:21:30;;;;;;;6.47;5.25;;;32.60;50.60;;;;;;5107718;28;20551;-89
2023/06/20 11:24:02;;;;;;;5.60;4.80;;;32.90;50.90;;;;;;5108790;27;20399;-91
2023/06/20 11:26:33;;;;;;;7.13;4.93;;;32.90;49.20;;;;;;5107822;28;20509;-88
2023/06/20 11:29:02;;;;;;;6.10;5.60;;;32.90;50.10;;;;;;5126269;27;20394;-90
2023/06/20 11:31:29;;;;;;;7.37;5.20;;;32.80;50.10;;;;;;5090873;28;20820;-90
2023/06/20 11:34:07;;;;;;;6.30;5.55;;;33.00;50.90;;;;;;5107414;28;20414;-89
2023/06/20 11:36:34;;;;;;;6.40;5.90;;;33.20;50.30;;;;;;5107841;28;20414;-89
2023/06/20 11:39:07;;;;;;;6.45;5.75;;;33.20;49.20;;;;;;5107897;28;20402;-91
2023/06/20 11:41:34;;;;;;;5.30;4.90;;;33.30;50.60;;;;;;5090675;28;20398;-89
2023/06/20 11:44:01;;;;;;;4.78;4.38;;;33.50;50.30;;;;;;5107674;28;20403;-87
2023/06/20 11:46:26;;;;;;;5.15;4.75;;;33.60;47.60;;;;;;5106744;28;20456;-88
2023/06/20 11:48:56;;;;;;;4.38;3.97;;;33.50;47.10;;;;;;5106037;28;20402;-89
2023/06/20 11:51:24;;;;;;;4.65;4.25;;;33.50;47.40;;;;;;5107106;28;20830;-87
2023/06/20 11:54:05;;;;;;;3.60;3.30;;;33.50;48.20;;;;;;5107821;28;20937;-88
2023/06/20 11:56:30;;;;;;;4.15;3.85;;;33.60;45.10;;;;;;5107651;28;20918;-91
2023/06/20 11:58:56;;;;;;;4.25;3.20;;;33.80;45.70;;;;;;5107765;28;20394;-90
2023/06/20 12:01:25;;;;;;;4.82;3.70;;;33.90;45.40;;;;;;5090881;28;20402;-89
2023/06/20 12:04:06;;;;;;;4.43;3.80;;;34.10;46.60;;;;;;5090291;28;20391;-89
2023/06/20 12:06:37;;;;;;;5.78;3.90;;;34.20;46.70;;;;;;5090685;28;20426;-88
2023/06/20 12:09:13;;;;;;;5.50;4.50;;;34.20;44.80;;;;;;5107186;28;20414;-89
2023/06/20 12:11:47;;;;;;;5.18;4.65;;;34.20;45.40;;;;;;5111211;27;20419;-90
2023/06/20 12:14:14;;;;;;;5.20;4.70;;;34.30;45.40;;;;;;5111674;27;20431;-92
2023/06/20 12:16:40;;;;;;;6.30;4.53;;;34.40;44.80;;;;;;5111085;27;20758;-88
2023/06/20 12:19:06;;;;;;;5.20;4.70;;;34.50;46.10;;;;;;5112010;27;20402;-92
2023/06/20 12:21:31;;;;;;;5.90;5.40;;;34.60;44.50;;;;;;5094172;27;20448;-90
2023/06/20 12:23:57;;;;;;;5.70;5.20;;;34.60;44.30;;;;;;5095167;27;20442;-92
2023/06/20 12:26:23;;;;;;;5.73;5.10;;;34.60;43.80;;;;;;5094631;27;20429;-89
2023/06/20 12:28:49;;;;;;;5.07;4.55;;;34.40;44.30;;;;;;5094745;27;20398;-89
2023/06/20 12:31:15;;;;;;;5.47;4.97;;;34.40;44.70;;;;;;5111375;27;20471;-88
2023/06/20 12:33:40;;;;;;;5.43;4.93;;;34.50;46.80;;;;;;5095169;27;20424;-93